M/y CklaSS Nautique — V3RL5 — position and weather

sailwx.info

Track history (hours):
 
Tides and Currents Weather Stations Pressure Air Temp Water Temp Dewpoint Dewpoint Depression Visibility Wind Speed Wind Dir Waves Ship Positions

M/y CklaSS Nautique

Last reported at 2018-Jun-18 07:23 UTC. Time now 2018-Jun-18 09:23 UTC.
Position N 38°52' E 001°21'.

Length 45 m; draft 4.2 m.

Type: Pleasure craft. MMSI: 312733000.

Date/timePositionNaut miles runAvg speedWind from/ knotsBaromVisibWave heightAir tempDewpointWater temp
2018-Jun-18 07:23N 38°52' E 001°21'0 0.0
2018-Jun-18 00:45N 38°52' E 001°21'0 0.0
2018-Jun-18 00:23N 38°52' E 001°21'0 0.0
2018-Jun-17 23:41N 38°52' E 001°21'0 0.0
2018-Jun-17 22:29N 38°52' E 001°21'0 0.0
2018-Jun-17 18:08N 38°52' E 001°21'0 0.0
2018-Jun-17 17:59N 38°52' E 001°21'0 0.0
2018-Jun-17 17:30N 38°52' E 001°21'0 0.0
2018-Jun-17 17:00N 38°52' E 001°21'0 0.0
2018-Jun-17 16:29N 38°52' E 001°21'32 4.3
2018-Jun-17 08:59N 38°30' E 000°50'511.0
2018-Jun-17 08:30N 38°26' E 000°45'611.1
2018-Jun-17 08:00N 38°23' E 000°40'810.9
2018-Jun-17 07:19N 38°18' E 000°33'610.7
2018-Jun-17 06:45N 38°14' E 000°27'310.7
2018-Jun-17 06:30N 38°12' E 000°24'810.6
2018-Jun-17 05:45N 38°06' E 000°17'310.6
2018-Jun-17 05:28N 38°04' E 000°14'510.5
2018-Jun-17 05:00N 38°01' E 000°09'510.3
2018-Jun-17 04:29N 37°58' E 000°04'510.5
2018-Jun-17 03:58N 37°54' W 000°01'510.5
2018-Jun-17 03:30N 37°51' W 000°05'810.3
2018-Jun-17 02:44N 37°45' W 000°13'210.3
2018-Jun-17 02:30N 37°44' W 000°15'510.3
2018-Jun-17 02:00N 37°40' W 000°20'510.6
2018-Jun-17 01:30N 37°37' W 000°24'510.8
2018-Jun-17 01:00N 37°33' W 000°29'610.9
2018-Jun-17 00:29N 37°30' W 000°35'611.0
2018-Jun-16 23:55N 37°27' W 000°42'510.9
2018-Jun-16 23:29N 37°24' W 000°47'610.7
2018-Jun-16 22:57N 37°21' W 000°53'510.9
2018-Jun-16 22:29N 37°19' W 000°59'1011.1
2018-Jun-16 21:33N 37°13' W 001°10'  
2018-Jun-09 16:11N 36°16' W 005°10'310.8
2018-Jun-09 15:55N 36°14' W 005°12'1011.0
2018-Jun-09 15:00N 36°06' W 005°21'2 4.7
2018-Jun-09 14:28N 36°09' W 005°22'0 0.0
2018-Jun-09 14:00N 36°09' W 005°22'0 0.0
2018-Jun-09 13:30N 36°09' W 005°22'0 0.0
2018-Jun-09 12:59N 36°09' W 005°22'0 0.0
2018-Jun-09 12:30N 36°09' W 005°22'0 0.0
2018-Jun-09 12:00N 36°09' W 005°22'0 0.0
2018-Jun-09 10:59N 36°09' W 005°22'  
Track history (hours):
 
Tides and Currents Weather Stations Pressure Air Temp Water Temp Dewpoint Dewpoint Depression Visibility Wind Speed Wind Dir Waves Ship Positions

M/y CklaSS Nautique

Last reported at 2018-Jun-18 07:23 UTC. Time now 2018-Jun-18 09:23 UTC.
Position N 38°52' E 001°21'.

Length 45 m; draft 4.2 m.

Type: Pleasure craft. MMSI: 312733000.

Date/timePositionNaut miles runAvg speedWind from/ knotsBaromVisibWave heightAir tempDewpointWater temp
2018-Jun-18 07:23N 38°52' E 001°21'0 0.0
2018-Jun-18 00:45N 38°52' E 001°21'0 0.0
2018-Jun-18 00:23N 38°52' E 001°21'0 0.0
2018-Jun-17 23:41N 38°52' E 001°21'0 0.0
2018-Jun-17 22:29N 38°52' E 001°21'0 0.0
2018-Jun-17 18:08N 38°52' E 001°21'0 0.0
2018-Jun-17 17:59N 38°52' E 001°21'0 0.0
2018-Jun-17 17:30N 38°52' E 001°21'0 0.0
2018-Jun-17 17:00N 38°52' E 001°21'0 0.0
2018-Jun-17 16:29N 38°52' E 001°21'32 4.3
2018-Jun-17 08:59N 38°30' E 000°50'511.0
2018-Jun-17 08:30N 38°26' E 000°45'611.1
2018-Jun-17 08:00N 38°23' E 000°40'810.9
2018-Jun-17 07:19N 38°18' E 000°33'610.7
2018-Jun-17 06:45N 38°14' E 000°27'310.7
2018-Jun-17 06:30N 38°12' E 000°24'810.6
2018-Jun-17 05:45N 38°06' E 000°17'310.6
2018-Jun-17 05:28N 38°04' E 000°14'510.5
2018-Jun-17 05:00N 38°01' E 000°09'510.3
2018-Jun-17 04:29N 37°58' E 000°04'510.5
2018-Jun-17 03:58N 37°54' W 000°01'510.5
2018-Jun-17 03:30N 37°51' W 000°05'810.3
2018-Jun-17 02:44N 37°45' W 000°13'210.3
2018-Jun-17 02:30N 37°44' W 000°15'510.3
2018-Jun-17 02:00N 37°40' W 000°20'510.6
2018-Jun-17 01:30N 37°37' W 000°24'510.8
2018-Jun-17 01:00N 37°33' W 000°29'610.9
2018-Jun-17 00:29N 37°30' W 000°35'611.0
2018-Jun-16 23:55N 37°27' W 000°42'510.9
2018-Jun-16 23:29N 37°24' W 000°47'610.7
2018-Jun-16 22:57N 37°21' W 000°53'510.9
2018-Jun-16 22:29N 37°19' W 000°59'1011.1
2018-Jun-16 21:33N 37°13' W 001°10'  
2018-Jun-09 16:11N 36°16' W 005°10'310.8
2018-Jun-09 15:55N 36°14' W 005°12'1011.0
2018-Jun-09 15:00N 36°06' W 005°21'2 4.7
2018-Jun-09 14:28N 36°09' W 005°22'0 0.0
2018-Jun-09 14:00N 36°09' W 005°22'0 0.0
2018-Jun-09 13:30N 36°09' W 005°22'0 0.0
2018-Jun-09 12:59N 36°09' W 005°22'0 0.0
2018-Jun-09 12:30N 36°09' W 005°22'0 0.0
2018-Jun-09 12:00N 36°09' W 005°22'0 0.0
2018-Jun-09 10:59N 36°09' W 005°22'  

Dump ship's entire track history